Time;durP1;ratioP1;P1;durP2;ratioP2;P2;SDS_P1;SDS_P2;PMS_P1;PMS_P2;Temp;Humidity;BMP_temperature;BMP_pressure;BME280_temperature;BME280_humidity;BME280_pressure;Samples;Min_cycle;Max_cycle;Signal;HPM_P1;HPM_P2
2024/01/13 00:00:44;;;;;;;11.33;10.13;;;4.30;99.90;;;;;;4835357;29;39219;-84
2024/01/13 00:03:11;;;;;;;12.85;9.30;;;4.40;99.90;;;;;;4817099;29;37323;-87
2024/01/13 00:05:37;;;;;;;10.03;8.33;;;4.30;99.90;;;;;;4825415;29;38377;-85
2024/01/13 00:08:04;;;;;;;9.20;8.30;;;4.30;99.90;;;;;;4827658;29;39265;-88
2024/01/13 00:10:36;;;;;;;10.97;9.30;;;4.30;99.90;;;;;;4821969;29;39281;-86
2024/01/13 00:13:02;;;;;;;10.35;7.38;;;4.40;99.90;;;;;;4837645;29;36601;-85
2024/01/13 00:15:39;;;;;;;9.40;7.17;;;4.40;99.90;;;;;;4822190;29;36150;-82
2024/01/13 00:18:18;;;;;;;8.77;5.93;;;4.40;99.90;;;;;;4814625;29;38661;-85
2024/01/13 00:21:02;;;;;;;9.13;5.47;;;4.40;99.90;;;;;;4818703;29;38601;-87
2024/01/13 00:23:52;;;;;;;6.27;5.30;;;4.40;99.90;;;;;;4824997;29;48650;-87
2024/01/13 00:26:27;;;;;;;5.87;5.27;;;4.40;99.90;;;;;;4805026;29;39169;-86
2024/01/13 00:28:54;;;;;;;7.03;4.80;;;4.40;99.90;;;;;;4832192;29;38821;-84
2024/01/13 00:31:20;;;;;;;5.13;4.33;;;4.40;99.90;;;;;;4824320;29;37494;-85
2024/01/13 00:33:51;;;;;;;4.63;4.20;;;4.40;99.90;;;;;;4839709;29;39305;-86
2024/01/13 00:36:27;;;;;;;8.20;4.30;;;4.40;99.90;;;;;;4803157;29;38547;-81
2024/01/13 00:38:54;;;;;;;5.33;4.30;;;4.40;99.90;;;;;;4820986;29;37716;-83
2024/01/13 00:41:20;;;;;;;7.03;4.47;;;4.40;99.90;;;;;;4831908;29;38651;-85
2024/01/13 00:43:47;;;;;;;5.57;4.17;;;4.40;99.90;;;;;;4825104;29;36540;-85
2024/01/13 00:46:13;;;;;;;7.27;4.20;;;4.40;99.90;;;;;;4814007;29;39188;-83
2024/01/13 00:48:45;;;;;;;5.50;4.00;;;4.40;99.90;;;;;;4825384;29;38066;-81
2024/01/13 00:51:19;;;;;;;5.68;4.00;;;4.40;99.90;;;;;;4826275;29;39018;-86
2024/01/13 00:53:45;;;;;;;8.37;5.40;;;4.40;99.90;;;;;;4839139;29;37598;-85
2024/01/13 00:56:12;;;;;;;9.60;4.47;;;4.40;99.90;;;;;;4820344;29;39186;-89
2024/01/13 00:58:41;;;;;;;6.27;4.43;;;4.40;99.90;;;;;;4815577;29;39193;-85
2024/01/13 01:01:16;;;;;;;5.80;4.40;;;4.40;99.90;;;;;;4824833;29;39398;-85
2024/01/13 01:03:42;;;;;;;4.83;4.43;;;4.40;99.90;;;;;;4825630;29;36671;-88
2024/01/13 01:06:12;;;;;;;6.40;4.97;;;4.30;99.90;;;;;;4801875;29;39407;-87
2024/01/13 01:08:41;;;;;;;5.33;4.73;;;4.40;99.90;;;;;;4818278;29;40357;-84
2024/01/13 01:11:08;;;;;;;8.20;5.10;;;4.30;99.90;;;;;;4823520;29;37813;-87
2024/01/13 01:13:37;;;;;;;7.77;5.47;;;4.40;99.90;;;;;;4841487;29;37142;-87
2024/01/13 01:16:17;;;;;;;8.03;4.73;;;4.30;99.90;;;;;;4820609;29;38161;-88
2024/01/13 01:18:46;;;;;;;5.00;4.37;;;4.30;99.90;;;;;;4823851;29;37865;-86
2024/01/13 01:21:24;;;;;;;5.87;4.73;;;4.30;99.90;;;;;;4811516;29;38602;-87
2024/01/13 01:23:50;;;;;;;6.83;4.30;;;4.30;99.90;;;;;;4836162;29;36468;-85
2024/01/13 01:26:16;;;;;;;5.87;4.80;;;4.30;99.90;;;;;;4823569;29;38373;-86
2024/01/13 01:28:43;;;;;;;5.13;4.40;;;4.30;99.90;;;;;;4844666;29;37829;-88
2024/01/13 01:31:15;;;;;;;6.07;4.67;;;4.30;99.90;;;;;;4832360;29;37777;-86
2024/01/13 01:33:44;;;;;;;7.50;5.90;;;4.30;99.90;;;;;;4805689;29;35734;-87
2024/01/13 01:36:35;;;;;;;8.67;6.20;;;4.30;99.90;;;;;;4823326;29;39320;-86
2024/01/13 01:39:04;;;;;;;6.63;5.47;;;4.40;99.90;;;;;;4836336;29;38970;-86
2024/01/13 01:41:33;;;;;;;6.87;5.63;;;4.40;99.90;;;;;;4806357;29;37526;-83
2024/01/13 01:44:05;;;;;;;7.17;5.30;;;4.40;99.90;;;;;;4804236;29;37711;-87
2024/01/13 01:46:35;;;;;;;8.88;5.63;;;4.40;99.90;;;;;;4793908;29;47872;-86
2024/01/13 01:49:07;;;;;;;7.63;5.37;;;4.40;99.90;;;;;;4827791;29;38020;-85
2024/01/13 01:51:33;;;;;;;4.35;3.95;;;4.40;99.90;;;;;;4821176;29;48034;-86
2024/01/13 01:54:03;;;;;;;5.83;4.87;;;4.40;99.90;;;;;;4835403;29;37139;-85
2024/01/13 01:56:34;;;;;;;6.93;5.53;;;4.40;99.90;;;;;;4826227;29;47124;-85
2024/01/13 01:59:19;;;;;;;6.30;5.00;;;4.40;99.90;;;;;;4805801;29;37663;-85
2024/01/13 02:02:03;;;;;;;5.30;4.80;;;4.40;99.90;;;;;;5229702;23;49389;-84
2024/01/13 02:04:39;;;;;;;5.57;5.03;;;4.50;99.90;;;;;;4805008;29;47414;-86
2024/01/13 02:07:07;;;;;;;8.70;5.00;;;4.50;99.90;;;;;;4804127;29;37804;-84
2024/01/13 02:09:46;;;;;;;5.83;4.80;;;4.50;99.90;;;;;;4826427;29;36996;-83
2024/01/13 02:12:15;;;;;;;7.63;5.17;;;4.50;99.90;;;;;;4850921;29;37255;-84
2024/01/13 02:14:44;;;;;;;7.57;5.93;;;4.50;99.90;;;;;;4860216;29;37976;-86
2024/01/13 02:22:11;;;;;;;7.93;4.87;;;4.50;99.90;;;;;;4799839;29;48527;-87
2024/01/13 02:24:17;;;;;;;5.80;4.93;;;4.60;99.90;;;;;;4750521;29;47786;-83
2024/01/13 02:27:21;;;;;;;7.47;4.80;;;4.60;99.90;;;;;;4798932;29;38635;-84
2024/01/13 02:33:11;;;;;;;5.53;4.70;;;4.50;99.90;;;;;;4791611;29;48541;-87
2024/01/13 02:36:27;;;;;;;7.83;4.90;;;4.60;99.90;;;;;;4802732;29;47422;-84
2024/01/13 02:38:53;;;;;;;6.57;5.37;;;4.60;99.90;;;;;;4828132;29;48131;-86
2024/01/13 02:41:27;;;;;;;8.33;5.10;;;4.60;99.90;;;;;;4816345;29;38143;-86
2024/01/13 02:44:18;;;;;;;9.53;5.93;;;4.60;99.90;;;;;;4796382;29;40274;-83
2024/01/13 02:50:03;;;;;;;7.40;5.53;;;4.60;99.90;;;;;;4774510;29;48705;-84
2024/01/13 02:52:50;;;;;;;7.07;5.43;;;4.50;99.90;;;;;;4771943;29;39051;-84
2024/01/13 02:55:34;;;;;;;7.73;6.07;;;4.50;99.90;;;;;;4764913;29;37672;-83
2024/01/13 02:58:13;;;;;;;9.37;6.33;;;4.50;99.90;;;;;;4771313;29;37274;-85
2024/01/13 03:00:59;;;;;;;10.00;6.10;;;4.50;99.90;;;;;;4726251;29;49237;-83
2024/01/13 03:03:54;;;;;;;;;;;;;;;;;;;;;
2024/01/13 03:06:32;;;;;;;8.67;6.23;;;4.50;99.90;;;;;;4749153;29;38571;-86
2024/01/13 03:09:26;;;;;;;7.67;6.10;;;4.50;99.90;;;;;;4779813;29;39007;-86
2024/01/13 03:11:55;;;;;;;9.07;6.47;;;4.50;99.90;;;;;;4812319;29;49118;-87
2024/01/13 03:14:56;;;;;;;9.93;6.67;;;4.40;99.90;;;;;;4811889;29;39073;-84
2024/01/13 03:17:31;;;;;;;10.13;6.27;;;4.40;99.90;;;;;;4837476;29;39319;-84
2024/01/13 03:20:17;;;;;;;9.33;6.77;;;4.40;99.90;;;;;;4815982;29;36905;-82
2024/01/13 03:23:19;;;;;;;8.63;6.30;;;4.40;99.90;;;;;;4804790;29;49188;-85
2024/01/13 03:26:18;;;;;;;10.70;7.73;;;4.40;99.90;;;;;;4811237;29;49882;-85
2024/01/13 03:29:11;;;;;;;10.60;7.83;;;4.40;99.90;;;;;;4816585;29;48830;-86
2024/01/13 03:32:12;;;;;;;12.25;7.35;;;4.30;99.90;;;;;;4826488;29;49196;-87
2024/01/13 03:37:57;;;;;;;;;;;;;;;;;;;;;
2024/01/13 03:40:55;;;;;;;10.70;7.23;;;4.40;99.90;;;;;;4746456;29;38538;-86
2024/01/13 03:43:38;;;;;;;10.97;7.10;;;4.40;99.90;;;;;;4746960;29;40896;-84
2024/01/13 03:46:26;;;;;;;9.30;6.90;;;4.40;99.90;;;;;;4753390;29;37144;-85
2024/01/13 03:49:00;;;;;;;11.63;6.50;;;4.40;99.90;;;;;;4767752;29;41832;-88
2024/01/13 03:51:46;;;;;;;9.17;6.43;;;4.50;99.90;;;;;;4760382;29;38560;-87
2024/01/13 03:54:25;;;;;;;12.03;7.03;;;4.50;99.90;;;;;;4775855;29;37653;-87
2024/01/13 03:57:10;;;;;;;11.97;7.20;;;4.50;99.90;;;;;;4847176;29;37790;-86
2024/01/13 03:59:38;;;;;;;8.67;6.23;;;4.50;99.90;;;;;;4854854;29;48198;-88
2024/01/13 04:02:11;;;;;;;9.87;6.07;;;4.50;99.90;;;;;;4835688;29;37826;-85
2024/01/13 04:04:41;;;;;;;10.65;6.30;;;4.50;99.90;;;;;;4827901;29;40062;-87
2024/01/13 04:07:11;;;;;;;9.83;6.77;;;4.50;99.90;;;;;;4819589;29;37607;-84
2024/01/13 04:09:39;;;;;;;11.57;7.00;;;4.50;99.90;;;;;;4836084;29;41649;-85
2024/01/13 04:12:06;;;;;;;12.17;6.60;;;4.50;99.90;;;;;;4831612;29;39238;-83
2024/01/13 04:14:42;;;;;;;9.33;6.00;;;4.50;99.90;;;;;;4841895;29;37784;-87
2024/01/13 04:18:01;;;;;;;9.53;6.00;;;4.50;99.90;;;;;;4826700;29;36489;-86
2024/01/13 04:20:59;;;;;;;9.90;6.27;;;4.50;99.90;;;;;;4802059;29;38999;-83
2024/01/13 04:23:28;;;;;;;8.70;5.90;;;4.50;99.90;;;;;;4837691;29;38208;-84
2024/01/13 04:25:57;;;;;;;10.90;6.17;;;4.50;99.90;;;;;;4830035;29;37645;-86
2024/01/13 04:28:26;;;;;;;8.90;5.77;;;4.50;99.90;;;;;;4833935;29;39178;-88
2024/01/13 04:30:55;;;;;;;8.73;6.13;;;4.60;99.90;;;;;;4846264;29;38018;-84
2024/01/13 04:33:21;;;;;;;9.43;5.93;;;4.60;99.90;;;;;;4833099;29;38787;-86
2024/01/13 04:35:48;;;;;;;7.80;5.67;;;4.60;99.90;;;;;;4833279;29;37672;-83
2024/01/13 04:38:14;;;;;;;7.30;5.60;;;4.60;99.90;;;;;;4844184;29;36387;-81
2024/01/13 04:40:41;;;;;;;9.87;5.97;;;4.60;99.90;;;;;;4841256;29;38090;-83
2024/01/13 04:43:07;;;;;;;9.87;5.53;;;4.60;99.90;;;;;;4838781;29;37090;-80
2024/01/13 04:45:33;;;;;;;12.83;7.00;;;4.60;99.90;;;;;;4858766;29;38543;-86
2024/01/13 04:48:03;;;;;;;8.03;5.73;;;4.60;99.90;;;;;;4837290;29;39761;-86
2024/01/13 04:50:56;;;;;;;;;;;;;;;;;;;;;
2024/01/13 04:53:41;;;;;;;8.00;6.20;;;4.60;99.90;;;;;;4819534;29;39619;-81
2024/01/13 04:56:40;;;;;;;8.17;6.27;;;4.50;99.90;;;;;;4811429;29;37608;-83
2024/01/13 04:59:16;;;;;;;;;;;;;;;;;;;;;
2024/01/13 05:02:19;;;;;;;10.80;6.50;;;4.50;99.90;;;;;;4835463;29;39637;-85
2024/01/13 05:05:00;;;;;;;7.50;6.53;;;4.50;99.90;;;;;;4831454;29;49473;-83
2024/01/13 05:14:34;;;;;;;7.63;6.40;;;4.50;99.90;;;;;;4746327;29;48765;-83
2024/01/13 05:17:38;;;;;;;8.40;5.43;;;4.50;99.90;;;;;;4769536;29;47945;-84
2024/01/13 05:20:45;;;;;;;7.77;5.77;;;4.50;99.90;;;;;;4791626;29;49300;-83
2024/01/13 05:23:26;;;;;;;13.00;7.47;;;4.50;99.90;;;;;;4797718;29;47381;-82
2024/01/13 05:26:12;;;;;;;8.57;5.97;;;4.60;99.90;;;;;;4822271;29;39681;-84
2024/01/13 05:31:42;;;;;;;;;;;4.60;99.90;;;;;;4820040;29;49211;-85
2024/01/13 05:35:08;;;;;;;5.37;4.23;;;4.70;99.90;;;;;;4820898;29;37854;-84
2024/01/13 05:38:08;;;;;;;;;;;;;;;;;;;;;
2024/01/13 05:43:57;;;;;;;4.80;3.08;;;4.70;99.90;;;;;;4811202;29;39033;-85
2024/01/13 05:47:08;;;;;;;;;;;;;;;;;;;;;
2024/01/13 05:49:49;;;;;;;;;;;;;;;;;;;;;
2024/01/13 05:52:40;;;;;;;;;;;;;;;;;;;;;
2024/01/13 05:56:19;;;;;;;5.30;3.53;;;4.70;99.90;;;;;;4805088;29;37872;-85
2024/01/13 05:59:16;;;;;;;4.83;3.70;;;4.80;99.90;;;;;;4789788;29;48583;-82
2024/01/13 06:02:23;;;;;;;6.33;4.23;;;4.80;99.90;;;;;;4749656;29;49154;-83
2024/01/13 06:08:27;;;;;;;4.63;3.20;;;4.80;99.90;;;;;;4728143;29;38691;-83
2024/01/13 06:11:05;;;;;;;3.90;2.83;;;4.90;99.90;;;;;;4767451;29;38560;-79
2024/01/13 06:14:34;;;;;;;;;;;;;;;;;;;;;
2024/01/13 06:23:59;;;;;;;3.40;2.57;;;4.90;99.90;;;;;;4773175;29;37182;-83
2024/01/13 06:26:56;;;;;;;3.87;2.97;;;4.90;99.90;;;;;;4752606;29;39316;-83
2024/01/13 06:29:28;;;;;;;4.27;3.70;;;4.90;99.90;;;;;;4789904;29;39346;-84
2024/01/13 06:32:52;;;;;;;4.37;3.97;;;4.90;99.90;;;;;;4837967;29;40298;-83
2024/01/13 06:35:19;;;;;;;5.57;5.07;;;4.90;99.90;;;;;;4770463;29;49182;-81
2024/01/13 06:37:45;;;;;;;6.30;5.67;;;4.90;99.90;;;;;;4827840;29;39336;-85
2024/01/13 06:40:12;;;;;;;6.20;5.43;;;5.00;99.90;;;;;;4826330;29;37263;-79
2024/01/13 06:42:38;;;;;;;6.90;5.53;;;5.00;99.90;;;;;;4853498;29;39120;-81
2024/01/13 06:45:08;;;;;;;9.03;6.67;;;5.00;99.90;;;;;;4839972;29;36733;-81
2024/01/13 06:47:34;;;;;;;7.67;5.97;;;5.00;99.90;;;;;;4846435;29;38531;-81
2024/01/13 06:50:03;;;;;;;7.80;6.83;;;5.00;99.90;;;;;;4843622;29;38711;-82
2024/01/13 06:52:38;;;;;;;8.13;6.80;;;5.00;99.90;;;;;;4841827;29;38440;-83
2024/01/13 06:55:07;;;;;;;8.50;6.83;;;5.00;99.90;;;;;;4837766;29;38522;-82
2024/01/13 06:57:36;;;;;;;8.93;7.10;;;5.00;99.90;;;;;;4837399;29;39133;-83
2024/01/13 07:00:07;;;;;;;10.10;7.60;;;5.00;99.90;;;;;;4837780;29;37894;-79
2024/01/13 07:02:33;;;;;;;8.03;7.23;;;5.00;99.90;;;;;;4841135;29;47324;-86
2024/01/13 07:05:01;;;;;;;9.07;8.27;;;5.00;99.90;;;;;;4837916;29;36286;-79
2024/01/13 07:07:28;;;;;;;9.20;7.00;;;5.00;99.90;;;;;;4838323;29;39734;-81
2024/01/13 07:09:54;;;;;;;9.27;8.13;;;5.00;99.90;;;;;;4864905;29;38417;-80
2024/01/13 07:12:20;;;;;;;9.90;8.70;;;5.00;99.90;;;;;;4842628;29;37706;-82
2024/01/13 07:14:47;;;;;;;10.80;7.90;;;5.00;99.90;;;;;;4858965;29;38706;-82
2024/01/13 07:17:13;;;;;;;9.73;8.60;;;5.00;99.90;;;;;;4837316;29;37896;-82
2024/01/13 07:19:39;;;;;;;11.80;9.77;;;5.00;99.90;;;;;;4860318;29;38045;-83
2024/01/13 07:22:06;;;;;;;12.03;10.73;;;5.00;99.90;;;;;;4858313;29;39038;-80
2024/01/13 07:24:33;;;;;;;14.27;11.40;;;5.00;99.90;;;;;;4839924;29;39127;-83
2024/01/13 07:26:59;;;;;;;13.33;10.87;;;5.00;99.90;;;;;;4840008;29;40944;-81
2024/01/13 07:29:25;;;;;;;13.30;11.10;;;5.00;99.90;;;;;;4863132;29;38673;-82
2024/01/13 07:31:54;;;;;;;13.80;12.37;;;5.10;99.90;;;;;;4833229;29;39296;-81
2024/01/13 07:34:21;;;;;;;14.93;13.33;;;5.00;99.90;;;;;;4839200;29;38706;-79
2024/01/13 07:36:47;;;;;;;18.37;13.27;;;5.00;99.90;;;;;;4827395;29;38178;-80
2024/01/13 07:39:14;;;;;;;14.80;13.13;;;5.10;99.90;;;;;;4858109;29;39018;-83
2024/01/13 07:41:50;;;;;;;15.03;13.43;;;5.10;99.90;;;;;;4836136;29;38311;-81
2024/01/13 07:44:17;;;;;;;15.90;13.20;;;5.10;99.90;;;;;;4833411;29;38522;-81
2024/01/13 07:46:43;;;;;;;15.83;13.03;;;5.10;99.90;;;;;;4823293;29;38290;-82
2024/01/13 07:49:12;;;;;;;18.13;12.83;;;5.10;99.90;;;;;;4816906;29;40651;-80
2024/01/13 07:51:43;;;;;;;15.30;13.30;;;5.20;99.90;;;;;;4832811;29;38918;-83
2024/01/13 07:54:25;;;;;;;17.37;12.20;;;5.10;99.90;;;;;;4836950;29;39099;-84
2024/01/13 07:57:29;;;;;;;14.27;12.37;;;5.10;99.90;;;;;;4823962;29;38398;-85
2024/01/13 07:59:58;;;;;;;16.43;12.40;;;5.10;99.90;;;;;;4826879;29;48237;-82
2024/01/13 08:02:32;;;;;;;14.60;12.73;;;5.10;99.90;;;;;;4802543;29;39423;-84
2024/01/13 08:05:04;;;;;;;16.90;13.33;;;5.10;99.90;;;;;;4829539;29;38062;-83
2024/01/13 08:07:38;;;;;;;15.30;11.93;;;5.10;99.90;;;;;;4824499;29;38656;-84
2024/01/13 08:10:18;;;;;;;16.87;13.77;;;5.00;99.90;;;;;;4831322;29;38898;-85
2024/01/13 08:12:48;;;;;;;17.73;13.50;;;5.10;99.90;;;;;;4824247;29;48041;-84
2024/01/13 08:15:17;;;;;;;15.90;13.10;;;5.10;99.90;;;;;;4831479;29;40349;-84
2024/01/13 08:18:00;;;;;;;15.33;12.77;;;5.10;99.90;;;;;;4842146;29;37868;-86
2024/01/13 08:20:26;;;;;;;15.35;12.70;;;5.10;99.90;;;;;;4816661;29;37567;-82
2024/01/13 08:22:55;;;;;;;14.37;12.20;;;5.10;99.90;;;;;;4835561;29;36986;-83
2024/01/13 08:25:21;;;;;;;17.93;10.67;;;5.10;99.90;;;;;;4841071;29;36350;-80
2024/01/13 08:27:47;;;;;;;12.17;10.70;;;5.10;99.90;;;;;;4838735;29;39418;-83
2024/01/13 08:30:14;;;;;;;10.77;9.43;;;5.10;99.90;;;;;;4840628;29;38601;-83
2024/01/13 08:32:40;;;;;;;13.60;10.37;;;5.00;99.90;;;;;;4840727;29;39403;-83
2024/01/13 08:35:07;;;;;;;14.53;10.83;;;5.00;99.90;;;;;;4835054;29;36237;-80
2024/01/13 08:37:33;;;;;;;8.97;7.87;;;5.00;99.90;;;;;;4839655;29;37752;-85
2024/01/13 08:39:59;;;;;;;10.80;6.80;;;5.00;99.90;;;;;;4852805;29;39059;-83
2024/01/13 08:42:25;;;;;;;8.40;6.60;;;5.00;99.90;;;;;;4853514;29;38495;-85
2024/01/13 08:44:51;;;;;;;8.83;5.23;;;5.10;99.90;;;;;;4843528;29;37012;-80
2024/01/13 08:47:17;;;;;;;7.83;6.43;;;5.10;99.90;;;;;;4841165;29;37965;-83
2024/01/13 08:49:44;;;;;;;7.80;7.00;;;5.00;99.90;;;;;;4838990;29;37832;-80
2024/01/13 08:52:10;;;;;;;11.30;6.87;;;5.10;99.90;;;;;;4839929;29;39128;-83
2024/01/13 08:54:36;;;;;;;7.57;6.77;;;5.10;99.90;;;;;;4858374;29;37276;-81
2024/01/13 08:57:05;;;;;;;8.10;6.90;;;5.00;99.90;;;;;;4836583;29;41131;-82
2024/01/13 08:59:37;;;;;;;11.20;6.60;;;5.00;99.90;;;;;;4850630;29;38410;-79
2024/01/13 09:02:06;;;;;;;8.50;7.63;;;5.10;99.90;;;;;;4836680;29;38300;-82
2024/01/13 09:04:32;;;;;;;9.40;8.47;;;5.10;99.90;;;;;;4829450;29;38626;-82
2024/01/13 09:07:21;;;;;;;15.03;8.93;;;5.00;99.90;;;;;;4823635;29;38793;-80
2024/01/13 09:09:48;;;;;;;11.50;9.47;;;5.00;99.90;;;;;;4812224;29;47820;-81
2024/01/13 09:12:14;;;;;;;14.27;10.50;;;5.00;99.90;;;;;;4856284;29;38277;-84
2024/01/13 09:14:50;;;;;;;12.40;10.20;;;4.90;99.90;;;;;;4845693;29;37469;-82
2024/01/13 09:17:16;;;;;;;17.63;11.97;;;5.00;99.90;;;;;;4839411;29;39033;-80
2024/01/13 09:20:23;;;;;;;15.67;11.87;;;4.90;99.90;;;;;;4832831;29;37949;-80
2024/01/13 09:23:05;;;;;;;18.43;13.40;;;4.90;99.90;;;;;;4815954;29;48239;-80
2024/01/13 09:25:54;;;;;;;16.77;12.80;;;5.00;99.90;;;;;;4804907;29;49498;-82
2024/01/13 09:28:20;;;;;;;14.63;12.37;;;5.00;99.90;;;;;;4820884;29;38049;-81
2024/01/13 09:30:48;;;;;;;14.30;12.17;;;5.00;99.90;;;;;;4853248;29;39874;-79
2024/01/13 09:33:18;;;;;;;15.77;12.33;;;5.00;99.90;;;;;;4834072;29;37654;-78
2024/01/13 09:35:47;;;;;;;19.73;15.20;;;5.00;99.90;;;;;;4834433;29;36854;-84
2024/01/13 09:38:16;;;;;;;20.70;16.27;;;5.00;99.90;;;;;;4859315;29;38876;-84
2024/01/13 09:40:43;;;;;;;21.63;16.57;;;5.00;99.90;;;;;;4840924;29;37615;-86
2024/01/13 09:43:40;;;;;;;21.27;16.70;;;5.00;99.90;;;;;;4845722;29;38309;-85
2024/01/13 09:46:06;;;;;;;21.53;17.27;;;4.90;99.90;;;;;;4848673;29;37113;-83
2024/01/13 09:48:32;;;;;;;21.97;16.83;;;5.00;99.90;;;;;;4842172;29;39064;-80
2024/01/13 09:51:00;;;;;;;22.73;16.80;;;4.90;99.90;;;;;;4843847;29;37133;-84
2024/01/13 09:54:11;;;;;;;23.57;17.20;;;4.90;99.90;;;;;;4831324;29;37858;-83
2024/01/13 09:56:47;;;;;;;24.07;17.27;;;4.90;99.90;;;;;;4779885;29;47516;-78
2024/01/13 09:59:15;;;;;;;24.17;17.50;;;4.90;99.90;;;;;;4786797;29;38206;-80
2024/01/13 10:01:42;;;;;;;24.77;17.90;;;4.90;99.90;;;;;;4829939;29;37419;-80
2024/01/13 10:04:08;;;;;;;27.73;19.37;;;4.90;99.90;;;;;;4843541;29;37226;-82
2024/01/13 10:06:35;;;;;;;30.30;19.80;;;4.90;99.90;;;;;;4822607;29;38223;-80
2024/01/13 10:09:03;;;;;;;29.37;19.80;;;4.80;99.90;;;;;;4827412;29;38879;-79
2024/01/13 10:11:48;;;;;;;26.67;17.43;;;4.80;99.90;;;;;;4831438;29;37026;-76
2024/01/13 10:14:23;;;;;;;25.67;17.57;;;4.80;99.90;;;;;;4821985;29;37049;-81
2024/01/13 10:16:49;;;;;;;28.23;19.53;;;4.80;99.90;;;;;;4827314;29;36276;-78
2024/01/13 10:19:15;;;;;;;29.40;18.33;;;4.80;99.90;;;;;;4849839;29;38951;-78
2024/01/13 10:21:42;;;;;;;30.23;18.77;;;4.80;99.90;;;;;;4856474;29;40922;-79
2024/01/13 10:24:08;;;;;;;26.97;19.60;;;4.70;99.90;;;;;;4831780;29;37188;-78
2024/01/13 10:26:46;;;;;;;33.60;20.07;;;4.80;99.90;;;;;;4837794;29;21134;-79
2024/01/13 10:29:13;;;;;;;27.57;20.17;;;4.70;99.90;;;;;;4836561;29;37755;-83
2024/01/13 10:31:39;;;;;;;25.40;19.80;;;4.70;99.90;;;;;;4848258;29;38714;-77
2024/01/13 10:34:12;;;;;;;26.30;19.90;;;4.70;99.90;;;;;;4836336;29;37520;-78
2024/01/13 10:36:38;;;;;;;;;;;4.70;99.90;;;;;;4849278;29;37376;-79
2024/01/13 10:39:05;;;;;;;30.93;20.57;;;4.80;99.90;;;;;;4831377;29;38285;-80
2024/01/13 10:41:34;;;;;;;31.73;21.37;;;4.80;99.90;;;;;;4832122;29;37483;-77
2024/01/13 10:44:07;;;;;;;30.67;21.67;;;4.80;99.90;;;;;;4843223;29;38754;-76
2024/01/13 10:46:36;;;;;;;31.80;21.63;;;4.90;99.90;;;;;;4829279;29;47710;-76
2024/01/13 10:49:05;;;;;;;31.30;22.10;;;4.80;99.90;;;;;;4831462;29;38339;-77
2024/01/13 10:51:39;;;;;;;43.27;22.37;;;4.90;99.90;;;;;;4843837;29;37252;-78
2024/01/13 10:54:07;;;;;;;31.60;23.80;;;4.90;99.90;;;;;;4828565;29;37356;-77
2024/01/13 10:56:37;;;;;;;34.27;24.77;;;4.80;99.90;;;;;;4825946;29;36947;-75
2024/01/13 10:59:04;;;;;;;37.47;25.93;;;4.80;99.90;;;;;;4845349;29;38845;-80
2024/01/13 11:01:32;;;;;;;37.33;24.87;;;4.80;99.90;;;;;;4835613;29;38468;-79
2024/01/13 11:03:58;;;;;;;36.30;26.13;;;4.80;99.90;;;;;;4834648;29;37443;-78
2024/01/13 11:06:25;;;;;;;40.47;28.30;;;4.70;99.90;;;;;;4822471;29;36934;-79
2024/01/13 11:08:52;;;;;;;45.67;28.97;;;4.70;99.90;;;;;;4830121;29;37793;-79
2024/01/13 11:11:26;;;;;;;44.67;29.77;;;4.70;99.90;;;;;;4826875;29;37496;-77
2024/01/13 11:14:05;;;;;;;42.37;30.27;;;4.70;99.90;;;;;;4847568;29;37652;-78
2024/01/13 11:16:34;;;;;;;45.17;31.17;;;4.70;99.90;;;;;;4822140;29;47125;-79
2024/01/13 11:19:00;;;;;;;40.97;30.80;;;4.70;99.90;;;;;;4828378;29;38824;-77
2024/01/13 11:21:32;;;;;;;40.70;29.37;;;4.70;99.90;;;;;;4828140;29;37424;-77
2024/01/13 11:24:07;;;;;;;44.90;29.67;;;4.70;99.90;;;;;;4832134;29;38490;-76
2024/01/13 11:26:38;;;;;;;48.87;29.40;;;4.70;99.90;;;;;;4831048;29;47328;-80
2024/01/13 11:29:31;;;;;;;39.77;28.63;;;4.70;99.90;;;;;;4828104;29;39241;-77
2024/01/13 11:32:03;;;;;;;44.72;29.00;;;4.70;99.90;;;;;;4848211;29;38165;-75
2024/01/13 11:34:32;;;;;;;;;;;4.70;99.90;;;;;;4848783;29;49059;-77
2024/01/13 11:36:59;;;;;;;43.70;30.17;;;4.70;99.90;;;;;;4817878;29;37016;-78
2024/01/13 11:39:25;;;;;;;44.40;30.13;;;4.70;99.90;;;;;;4846342;29;38696;-79
2024/01/13 11:41:56;;;;;;;48.70;32.70;;;4.70;99.90;;;;;;4850871;29;38326;-79
2024/01/13 11:44:45;;;;;;;50.20;32.93;;;4.70;99.90;;;;;;4842728;29;38328;-78
2024/01/13 11:47:13;;;;;;;52.70;32.77;;;4.70;99.90;;;;;;4834831;29;37357;-80
2024/01/13 11:49:46;;;;;;;48.53;31.67;;;4.70;99.90;;;;;;4832443;29;37750;-79
2024/01/13 11:52:13;;;;;;;;;;;4.70;99.90;;;;;;4831595;29;37693;-76
2024/01/13 11:54:41;;;;;;;49.57;31.37;;;4.70;99.90;;;;;;4825017;29;36379;-77
2024/01/13 11:57:09;;;;;;;51.63;32.37;;;4.70;99.90;;;;;;4829593;29;35762;-79
2024/01/13 11:59:35;;;;;;;46.47;29.70;;;4.70;99.90;;;;;;4834748;29;38234;-77
2024/01/13 12:02:02;;;;;;;48.67;31.23;;;4.70;99.90;;;;;;4844646;29;38274;-79
2024/01/13 12:04:31;;;;;;;45.87;29.83;;;4.70;99.90;;;;;;4833276;29;38262;-78
2024/01/13 12:06:59;;;;;;;47.67;30.50;;;4.70;99.90;;;;;;4840132;29;36431;-77
2024/01/13 12:09:27;;;;;;;49.67;30.43;;;4.70;99.90;;;;;;4835303;29;38112;-82
2024/01/13 12:12:02;;;;;;;51.10;31.43;;;4.70;99.90;;;;;;4844974;29;35764;-84
2024/01/13 12:14:30;;;;;;;53.17;32.87;;;4.70;99.90;;;;;;4854170;29;48128;-82
2024/01/13 12:16:58;;;;;;;55.47;33.27;;;4.70;99.90;;;;;;4840387;29;36392;-83
2024/01/13 12:19:41;;;;;;;54.93;33.80;;;4.80;99.90;;;;;;4830916;29;38945;-84
2024/01/13 12:22:09;;;;;;;50.42;33.10;;;4.80;99.90;;;;;;4835828;29;38141;-84
2024/01/13 12:24:35;;;;;;;54.77;35.63;;;4.80;99.90;;;;;;4855332;29;38495;-85
2024/01/13 12:27:02;;;;;;;54.43;34.10;;;4.80;99.90;;;;;;4839159;29;35843;-80
2024/01/13 12:29:39;;;;;;;53.53;32.37;;;4.80;99.90;;;;;;4840141;29;37891;-86
2024/01/13 12:32:09;;;;;;;53.63;33.73;;;4.80;99.90;;;;;;4840544;29;37517;-85
2024/01/13 12:34:35;;;;;;;51.27;33.43;;;4.80;99.90;;;;;;4843412;29;37311;-83
2024/01/13 12:37:04;;;;;;;54.17;32.77;;;4.80;99.90;;;;;;4840772;29;38059;-81
2024/01/13 12:39:30;;;;;;;53.67;32.70;;;4.80;99.90;;;;;;4837350;29;39211;-81
2024/01/13 12:41:56;;;;;;;52.17;32.83;;;4.90;99.90;;;;;;4836312;29;37104;-80
2024/01/13 12:44:25;;;;;;;50.37;30.47;;;4.80;99.90;;;;;;4836412;29;37085;-85
2024/01/13 12:46:56;;;;;;;45.97;30.47;;;4.80;99.90;;;;;;4837231;29;36520;-80
2024/01/13 12:49:22;;;;;;;40.93;28.47;;;4.70;99.90;;;;;;4832810;29;38103;-77
2024/01/13 12:51:52;;;;;;;43.27;29.30;;;4.70;99.90;;;;;;4829048;29;38707;-78
2024/01/13 12:54:21;;;;;;;43.97;27.83;;;4.70;99.90;;;;;;4831883;29;38732;-78
2024/01/13 12:56:49;;;;;;;42.80;27.43;;;4.70;99.90;;;;;;4833297;29;37937;-79
2024/01/13 12:59:16;;;;;;;40.70;28.17;;;4.70;99.90;;;;;;4846392;29;38266;-80
2024/01/13 13:01:42;;;;;;;37.33;26.27;;;4.70;99.90;;;;;;4849299;29;39400;-80
2024/01/13 13:04:08;;;;;;;37.70;25.20;;;4.70;99.90;;;;;;4838064;29;37861;-76
2024/01/13 13:06:34;;;;;;;35.00;23.87;;;4.70;99.90;;;;;;4829040;29;36729;-80
2024/01/13 13:09:04;;;;;;;39.27;26.07;;;4.80;99.90;;;;;;4856387;29;39785;-83
2024/01/13 13:11:34;;;;;;;35.77;24.57;;;4.90;99.90;;;;;;4844227;29;46926;-84
2024/01/13 13:14:00;;;;;;;41.20;25.23;;;4.80;99.90;;;;;;4844680;29;37255;-82
2024/01/13 13:16:26;;;;;;;37.43;24.70;;;4.80;99.90;;;;;;4837321;29;37810;-81
2024/01/13 13:18:52;;;;;;;35.30;24.13;;;4.80;99.90;;;;;;4853743;29;38557;-82
2024/01/13 13:21:18;;;;;;;38.20;25.40;;;4.80;99.90;;;;;;4848451;29;38082;-81
2024/01/13 13:23:46;;;;;;;34.77;24.77;;;4.80;99.90;;;;;;4841788;29;37085;-84
2024/01/13 13:26:15;;;;;;;39.23;25.63;;;4.80;99.90;;;;;;4857435;29;36670;-85
2024/01/13 13:28:50;;;;;;;37.67;24.30;;;4.80;99.90;;;;;;4844409;29;37791;-83
2024/01/13 13:31:18;;;;;;;36.00;24.40;;;4.80;99.90;;;;;;4863390;29;39533;-81
2024/01/13 13:33:47;;;;;;;35.77;24.77;;;4.80;99.90;;;;;;4839232;29;37711;-81
2024/01/13 13:36:17;;;;;;;35.90;24.70;;;4.80;99.90;;;;;;4850873;29;37924;-83
2024/01/13 13:38:49;;;;;;;38.93;25.70;;;4.80;99.90;;;;;;4834587;29;38998;-82
2024/01/13 13:41:15;;;;;;;38.47;25.48;;;4.80;99.90;;;;;;4824443;29;38782;-80
2024/01/13 13:43:45;;;;;;;34.80;24.17;;;4.80;99.90;;;;;;4847561;29;38379;-81
2024/01/13 13:46:35;;;;;;;37.70;25.33;;;4.80;99.90;;;;;;4835689;29;38457;-82
2024/01/13 13:49:19;;;;;;;39.90;25.67;;;4.80;99.90;;;;;;4846089;29;39168;-82
2024/01/13 13:51:53;;;;;;;38.97;25.97;;;4.80;99.90;;;;;;4836535;29;38337;-83
2024/01/13 13:54:35;;;;;;;37.97;25.87;;;4.80;99.90;;;;;;4854248;29;37527;-84
2024/01/13 13:57:16;;;;;;;38.03;26.70;;;4.80;99.90;;;;;;4840562;29;36953;-81
2024/01/13 13:59:44;;;;;;;41.30;26.57;;;4.70;99.90;;;;;;4795826;29;47837;-83
2024/01/13 14:02:19;;;;;;;40.60;27.33;;;4.80;99.90;;;;;;4840913;29;37834;-82
2024/01/13 14:04:54;;;;;;;40.40;27.63;;;4.80;99.90;;;;;;4850691;29;38437;-82
2024/01/13 14:07:20;;;;;;;43.73;27.43;;;4.70;99.90;;;;;;4820109;29;39890;-81
2024/01/13 14:09:47;;;;;;;41.70;27.40;;;4.70;99.90;;;;;;4848966;29;40250;-81
2024/01/13 14:12:25;;;;;;;41.93;28.60;;;4.70;99.90;;;;;;4838966;29;38963;-83